Austin, Texas
Traffic Map
Current Weather Conditions
Austin, Texas
Clear
Clear
27°
Feels Like: 29°
Wind Chill: 27° Ceiling: Unl
Heat Index: 29° Visibility: 10mi
Dew Point: 23° Wind: 3mph
Humidity: 79% Direction: ° ()
Pressure: 29.99in Gusts: 0mph
Raw Report DataKATT 290151Z AUTO VRB03KT 10SM CLR 27/23 A2999 RMK AO2 SLP143 T02670228
Traffic Incident Summary
Active as of:
Severity:
Category:
InformationThere was an issue retrieving the traffic information for this location. Please try a different location or try again shortly.
Advertisements
Track Severe Weather on mobile